Aquinnah, Massachusetts
Current Conditions -  °F | °C
As of 12:53 AM on Friday 31 Oct 2014 (Local Time) from KMVY Reporting Station
Broken Clouds Broken Clouds  
Wind Chill:   Ceiling: 5000
Heat Index:   Visibility: 10mi
Dew Point:   Wind: 3mph
Humidity: 100%   Direction: 330°NNW
Pressure: 29.97"   Gusts: NA
Location:  41.3536°N, 70.7417°W
Report Text: KMVY 310453Z AUTO 33003KT 10SM BKN050 01/01 A2997 RMK AO2 SLP150 T00060006 401610006
Loading
Personal Weather Stations






























Interactive Weather Map
Tropical Storm Tracking
New forecast layout! Learn more

10-Day Weather Forecast

Advertisements
Track Severe Weather on mobile